sensor_id;sensor_type;location;lat;lon;timestamp;P1;durP1;ratioP1;P2;durP2;ratioP2
75667;SDS011;64266;48.798;44.756;2023-06-22T00:02:24;4.05;;;1.83;;
75667;SDS011;64266;48.798;44.756;2023-06-22T00:07:26;4.68;;;2.00;;
75667;SDS011;64266;48.798;44.756;2023-06-22T00:12:29;6.40;;;2.28;;
75667;SDS011;64266;48.798;44.756;2023-06-22T00:17:32;6.13;;;1.73;;
75667;SDS011;64266;48.798;44.756;2023-06-22T00:22:35;15.65;;;2.00;;
75667;SDS011;64266;48.798;44.756;2023-06-22T00:27:41;3.65;;;1.30;;
75667;SDS011;64266;48.798;44.756;2023-06-22T00:32:44;3.65;;;1.25;;
75667;SDS011;64266;48.798;44.756;2023-06-22T00:37:48;3.60;;;1.50;;
75667;SDS011;64266;48.798;44.756;2023-06-22T00:42:51;3.65;;;1.42;;
75667;SDS011;64266;48.798;44.756;2023-06-22T00:47:54;8.50;;;1.58;;
75667;SDS011;64266;48.798;44.756;2023-06-22T00:53:01;5.13;;;1.30;;
75667;SDS011;64266;48.798;44.756;2023-06-22T00:58:11;5.07;;;1.48;;
75667;SDS011;64266;48.798;44.756;2023-06-22T01:03:15;5.60;;;1.65;;
75667;SDS011;64266;48.798;44.756;2023-06-22T01:08:25;2.95;;;1.48;;
75667;SDS011;64266;48.798;44.756;2023-06-22T01:19:09;4.85;;;1.40;;
75667;SDS011;64266;48.798;44.756;2023-06-22T01:29:50;4.88;;;1.27;;
75667;SDS011;64266;48.798;44.756;2023-06-22T01:34:55;3.55;;;1.70;;
75667;SDS011;64266;48.798;44.756;2023-06-22T01:40:00;5.05;;;1.70;;
75667;SDS011;64266;48.798;44.756;2023-06-22T01:45:06;4.60;;;1.80;;
75667;SDS011;64266;48.798;44.756;2023-06-22T01:50:12;7.97;;;2.88;;
75667;SDS011;64266;48.798;44.756;2023-06-22T01:55:14;3.45;;;1.65;;
75667;SDS011;64266;48.798;44.756;2023-06-22T02:00:21;3.42;;;1.30;;
75667;SDS011;64266;48.798;44.756;2023-06-22T02:05:28;5.57;;;1.45;;
75667;SDS011;64266;48.798;44.756;2023-06-22T02:10:41;3.95;;;1.23;;
75667;SDS011;64266;48.798;44.756;2023-06-22T02:15:45;3.45;;;1.25;;
75667;SDS011;64266;48.798;44.756;2023-06-22T02:20:50;4.60;;;1.40;;
75667;SDS011;64266;48.798;44.756;2023-06-22T02:25:52;4.70;;;1.70;;
75667;SDS011;64266;48.798;44.756;2023-06-22T02:30:58;5.50;;;1.38;;
75667;SDS011;64266;48.798;44.756;2023-06-22T02:36:02;4.03;;;1.60;;
75667;SDS011;64266;48.798;44.756;2023-06-22T02:41:11;4.22;;;1.60;;
75667;SDS011;64266;48.798;44.756;2023-06-22T02:46:15;3.40;;;1.40;;
75667;SDS011;64266;48.798;44.756;2023-06-22T02:51:17;3.40;;;1.10;;
75667;SDS011;64266;48.798;44.756;2023-06-22T02:56:20;4.28;;;1.33;;
75667;SDS011;64266;48.798;44.756;2023-06-22T03:01:31;6.15;;;1.40;;
75667;SDS011;64266;48.798;44.756;2023-06-22T03:06:54;4.32;;;1.20;;
75667;SDS011;64266;48.798;44.756;2023-06-22T03:17:10;3.63;;;1.40;;
75667;SDS011;64266;48.798;44.756;2023-06-22T03:22:14;5.15;;;1.38;;
75667;SDS011;64266;48.798;44.756;2023-06-22T03:27:17;3.97;;;1.13;;
75667;SDS011;64266;48.798;44.756;2023-06-22T03:32:20;5.15;;;1.35;;
75667;SDS011;64266;48.798;44.756;2023-06-22T03:37:23;3.78;;;1.40;;
75667;SDS011;64266;48.798;44.756;2023-06-22T03:42:26;5.95;;;1.30;;
75667;SDS011;64266;48.798;44.756;2023-06-22T03:47:29;3.70;;;1.30;;
75667;SDS011;64266;48.798;44.756;2023-06-22T03:52:33;4.07;;;1.50;;
75667;SDS011;64266;48.798;44.756;2023-06-22T03:57:36;3.72;;;1.30;;
75667;SDS011;64266;48.798;44.756;2023-06-22T04:02:38;4.75;;;1.33;;
75667;SDS011;64266;48.798;44.756;2023-06-22T04:07:41;3.70;;;1.23;;
75667;SDS011;64266;48.798;44.756;2023-06-22T04:12:45;3.40;;;1.52;;
75667;SDS011;64266;48.798;44.756;2023-06-22T04:17:47;35.35;;;2.83;;
75667;SDS011;64266;48.798;44.756;2023-06-22T04:22:52;5.68;;;1.42;;
75667;SDS011;64266;48.798;44.756;2023-06-22T04:27:56;6.40;;;1.63;;
75667;SDS011;64266;48.798;44.756;2023-06-22T04:32:58;7.20;;;1.42;;
75667;SDS011;64266;48.798;44.756;2023-06-22T04:38:02;8.63;;;1.38;;
75667;SDS011;64266;48.798;44.756;2023-06-22T04:43:06;5.45;;;1.40;;
75667;SDS011;64266;48.798;44.756;2023-06-22T04:48:09;4.60;;;1.10;;
75667;SDS011;64266;48.798;44.756;2023-06-22T04:53:12;3.40;;;1.23;;
75667;SDS011;64266;48.798;44.756;2023-06-22T04:58:15;4.45;;;1.13;;
75667;SDS011;64266;48.798;44.756;2023-06-22T05:03:18;5.88;;;1.35;;
75667;SDS011;64266;48.798;44.756;2023-06-22T05:08:22;6.07;;;1.30;;
75667;SDS011;64266;48.798;44.756;2023-06-22T05:13:28;5.07;;;1.25;;
75667;SDS011;64266;48.798;44.756;2023-06-22T05:18:31;4.47;;;1.65;;
75667;SDS011;64266;48.798;44.756;2023-06-22T05:23:35;4.53;;;1.38;;
75667;SDS011;64266;48.798;44.756;2023-06-22T05:28:38;3.65;;;1.30;;
75667;SDS011;64266;48.798;44.756;2023-06-22T05:33:42;4.20;;;1.80;;
75667;SDS011;64266;48.798;44.756;2023-06-22T05:38:47;6.05;;;2.35;;
75667;SDS011;64266;48.798;44.756;2023-06-22T05:48:54;6.43;;;1.40;;
75667;SDS011;64266;48.798;44.756;2023-06-22T05:53:58;5.28;;;1.15;;
75667;SDS011;64266;48.798;44.756;2023-06-22T05:59:00;5.07;;;1.00;;
75667;SDS011;64266;48.798;44.756;2023-06-22T06:04:03;6.90;;;1.30;;
75667;SDS011;64266;48.798;44.756;2023-06-22T06:09:06;5.40;;;2.03;;
75667;SDS011;64266;48.798;44.756;2023-06-22T06:14:10;8.43;;;1.63;;
75667;SDS011;64266;48.798;44.756;2023-06-22T06:19:12;4.47;;;1.00;;
75667;SDS011;64266;48.798;44.756;2023-06-22T06:29:44;16.15;;;2.47;;
75667;SDS011;64266;48.798;44.756;2023-06-22T06:34:50;4.15;;;1.00;;
75667;SDS011;64266;48.798;44.756;2023-06-22T06:39:53;11.63;;;2.13;;
75667;SDS011;64266;48.798;44.756;2023-06-22T06:44:57;9.93;;;2.00;;
75667;SDS011;64266;48.798;44.756;2023-06-22T06:50:00;1.88;;;1.05;;
75667;SDS011;64266;48.798;44.756;2023-06-22T06:55:05;4.57;;;1.30;;
75667;SDS011;64266;48.798;44.756;2023-06-22T07:00:14;5.75;;;3.28;;
75667;SDS011;64266;48.798;44.756;2023-06-22T07:05:17;4.40;;;1.60;;
75667;SDS011;64266;48.798;44.756;2023-06-22T07:15:26;7.70;;;1.90;;
75667;SDS011;64266;48.798;44.756;2023-06-22T07:20:35;4.35;;;1.60;;
75667;SDS011;64266;48.798;44.756;2023-06-22T07:25:38;4.10;;;1.33;;
75667;SDS011;64266;48.798;44.756;2023-06-22T07:30:41;6.05;;;1.90;;
75667;SDS011;64266;48.798;44.756;2023-06-22T07:35:44;12.77;;;2.15;;
75667;SDS011;64266;48.798;44.756;2023-06-22T07:40:47;4.57;;;1.40;;
75667;SDS011;64266;48.798;44.756;2023-06-22T07:45:51;3.58;;;1.33;;
75667;SDS011;64266;48.798;44.756;2023-06-22T07:50:54;4.18;;;1.80;;
75667;SDS011;64266;48.798;44.756;2023-06-22T07:55:58;4.35;;;1.30;;
75667;SDS011;64266;48.798;44.756;2023-06-22T08:01:01;5.82;;;1.48;;
75667;SDS011;64266;48.798;44.756;2023-06-22T08:06:04;11.50;;;2.53;;
75667;SDS011;64266;48.798;44.756;2023-06-22T08:11:10;33.00;;;4.35;;
75667;SDS011;64266;48.798;44.756;2023-06-22T08:16:12;5.82;;;1.90;;
75667;SDS011;64266;48.798;44.756;2023-06-22T08:21:16;5.72;;;1.60;;
75667;SDS011;64266;48.798;44.756;2023-06-22T08:26:19;5.45;;;1.50;;
75667;SDS011;64266;48.798;44.756;2023-06-22T08:31:23;2.88;;;1.15;;
75667;SDS011;64266;48.798;44.756;2023-06-22T08:36:28;4.28;;;1.50;;
75667;SDS011;64266;48.798;44.756;2023-06-22T08:41:40;9.25;;;1.65;;
75667;SDS011;64266;48.798;44.756;2023-06-22T08:46:46;2.10;;;0.98;;
75667;SDS011;64266;48.798;44.756;2023-06-22T08:51:52;4.05;;;1.27;;
75667;SDS011;64266;48.798;44.756;2023-06-22T08:56:59;3.85;;;1.30;;
75667;SDS011;64266;48.798;44.756;2023-06-22T09:02:25;5.07;;;1.25;;
75667;SDS011;64266;48.798;44.756;2023-06-22T09:07:34;3.97;;;1.20;;
75667;SDS011;64266;48.798;44.756;2023-06-22T09:12:38;4.75;;;1.50;;
75667;SDS011;64266;48.798;44.756;2023-06-22T09:17:43;4.88;;;1.60;;
75667;SDS011;64266;48.798;44.756;2023-06-22T09:22:46;3.65;;;1.13;;
75667;SDS011;64266;48.798;44.756;2023-06-22T09:27:49;5.45;;;1.35;;
75667;SDS011;64266;48.798;44.756;2023-06-22T09:32:52;3.80;;;1.25;;
75667;SDS011;64266;48.798;44.756;2023-06-22T09:37:55;2.60;;;1.17;;
75667;SDS011;64266;48.798;44.756;2023-06-22T09:42:58;15.40;;;1.65;;
75667;SDS011;64266;48.798;44.756;2023-06-22T09:48:00;4.03;;;1.85;;
75667;SDS011;64266;48.798;44.756;2023-06-22T09:53:03;4.55;;;1.33;;
75667;SDS011;64266;48.798;44.756;2023-06-22T09:58:06;6.45;;;2.00;;
75667;SDS011;64266;48.798;44.756;2023-06-22T10:03:09;5.70;;;2.03;;
75667;SDS011;64266;48.798;44.756;2023-06-22T10:08:13;4.00;;;1.48;;
75667;SDS011;64266;48.798;44.756;2023-06-22T10:13:16;33.63;;;24.10;;
75667;SDS011;64266;48.798;44.756;2023-06-22T10:18:20;4.60;;;2.30;;
75667;SDS011;64266;48.798;44.756;2023-06-22T10:23:23;9.10;;;4.40;;
75667;SDS011;64266;48.798;44.756;2023-06-22T10:28:26;7.57;;;4.45;;
75667;SDS011;64266;48.798;44.756;2023-06-22T10:33:33;4.70;;;2.05;;
75667;SDS011;64266;48.798;44.756;2023-06-22T10:38:37;4.53;;;1.58;;
75667;SDS011;64266;48.798;44.756;2023-06-22T10:43:41;9.43;;;3.10;;
75667;SDS011;64266;48.798;44.756;2023-06-22T10:48:43;6.75;;;1.88;;
75667;SDS011;64266;48.798;44.756;2023-06-22T10:53:47;5.03;;;1.63;;
75667;SDS011;64266;48.798;44.756;2023-06-22T10:58:50;9.85;;;4.97;;
75667;SDS011;64266;48.798;44.756;2023-06-22T11:03:53;15.73;;;7.03;;
75667;SDS011;64266;48.798;44.756;2023-06-22T11:08:55;16.48;;;3.67;;
75667;SDS011;64266;48.798;44.756;2023-06-22T11:14:18;11.65;;;5.32;;
75667;SDS011;64266;48.798;44.756;2023-06-22T11:19:23;5.07;;;2.53;;
75667;SDS011;64266;48.798;44.756;2023-06-22T11:24:26;7.70;;;2.53;;
75667;SDS011;64266;48.798;44.756;2023-06-22T11:29:29;13.85;;;2.55;;
75667;SDS011;64266;48.798;44.756;2023-06-22T11:34:39;23.33;;;3.60;;
75667;SDS011;64266;48.798;44.756;2023-06-22T11:39:43;7.70;;;1.65;;
75667;SDS011;64266;48.798;44.756;2023-06-22T11:45:00;8.63;;;2.30;;
75667;SDS011;64266;48.798;44.756;2023-06-22T11:50:06;4.97;;;1.80;;
75667;SDS011;64266;48.798;44.756;2023-06-22T11:55:10;3.90;;;1.30;;
75667;SDS011;64266;48.798;44.756;2023-06-22T12:00:13;17.65;;;3.38;;
75667;SDS011;64266;48.798;44.756;2023-06-22T12:05:19;5.40;;;1.55;;
75667;SDS011;64266;48.798;44.756;2023-06-22T12:10:25;16.33;;;2.92;;
75667;SDS011;64266;48.798;44.756;2023-06-22T12:15:31;9.48;;;2.08;;
75667;SDS011;64266;48.798;44.756;2023-06-22T12:20:35;6.15;;;2.30;;
75667;SDS011;64266;48.798;44.756;2023-06-22T12:25:37;4.35;;;1.48;;
75667;SDS011;64266;48.798;44.756;2023-06-22T12:30:41;5.47;;;1.63;;
75667;SDS011;64266;48.798;44.756;2023-06-22T12:35:45;6.10;;;1.70;;
75667;SDS011;64266;48.798;44.756;2023-06-22T12:40:49;6.97;;;1.83;;
75667;SDS011;64266;48.798;44.756;2023-06-22T12:45:53;4.47;;;1.40;;
75667;SDS011;64266;48.798;44.756;2023-06-22T12:50:57;15.90;;;3.03;;
75667;SDS011;64266;48.798;44.756;2023-06-22T12:56:01;10.25;;;2.72;;
75667;SDS011;64266;48.798;44.756;2023-06-22T13:01:05;6.03;;;1.33;;
75667;SDS011;64266;48.798;44.756;2023-06-22T13:06:10;9.60;;;2.40;;
75667;SDS011;64266;48.798;44.756;2023-06-22T13:11:12;5.38;;;1.85;;
75667;SDS011;64266;48.798;44.756;2023-06-22T13:16:15;4.55;;;1.42;;
75667;SDS011;64266;48.798;44.756;2023-06-22T13:21:18;7.07;;;2.33;;
75667;SDS011;64266;48.798;44.756;2023-06-22T13:26:21;6.05;;;2.33;;
75667;SDS011;64266;48.798;44.756;2023-06-22T13:31:25;3.28;;;1.63;;
75667;SDS011;64266;48.798;44.756;2023-06-22T13:36:28;9.13;;;4.13;;
75667;SDS011;64266;48.798;44.756;2023-06-22T13:41:33;7.18;;;2.92;;
75667;SDS011;64266;48.798;44.756;2023-06-22T13:46:36;9.48;;;3.10;;
75667;SDS011;64266;48.798;44.756;2023-06-22T13:51:39;6.88;;;2.50;;
75667;SDS011;64266;48.798;44.756;2023-06-22T13:56:42;5.57;;;2.53;;
75667;SDS011;64266;48.798;44.756;2023-06-22T14:01:45;6.88;;;2.10;;
75667;SDS011;64266;48.798;44.756;2023-06-22T14:06:47;5.60;;;2.03;;
75667;SDS011;64266;48.798;44.756;2023-06-22T14:11:50;2.67;;;1.15;;
75667;SDS011;64266;48.798;44.756;2023-06-22T14:16:53;5.03;;;1.90;;
75667;SDS011;64266;48.798;44.756;2023-06-22T14:21:58;6.07;;;2.20;;
75667;SDS011;64266;48.798;44.756;2023-06-22T14:27:01;5.70;;;1.27;;
75667;SDS011;64266;48.798;44.756;2023-06-22T14:32:06;2.35;;;1.10;;
75667;SDS011;64266;48.798;44.756;2023-06-22T14:37:10;3.33;;;1.30;;
75667;SDS011;64266;48.798;44.756;2023-06-22T14:42:15;14.18;;;2.50;;
75667;SDS011;64266;48.798;44.756;2023-06-22T14:47:17;9.05;;;2.00;;
75667;SDS011;64266;48.798;44.756;2023-06-22T14:52:21;8.07;;;1.67;;
75667;SDS011;64266;48.798;44.756;2023-06-22T14:57:24;6.78;;;2.00;;
75667;SDS011;64266;48.798;44.756;2023-06-22T15:02:27;5.97;;;2.30;;
75667;SDS011;64266;48.798;44.756;2023-06-22T15:07:30;6.80;;;2.15;;
75667;SDS011;64266;48.798;44.756;2023-06-22T15:12:33;6.53;;;2.03;;
75667;SDS011;64266;48.798;44.756;2023-06-22T15:17:36;8.63;;;2.60;;
75667;SDS011;64266;48.798;44.756;2023-06-22T15:22:39;5.53;;;2.58;;
75667;SDS011;64266;48.798;44.756;2023-06-22T15:27:42;9.25;;;2.80;;
75667;SDS011;64266;48.798;44.756;2023-06-22T15:32:45;9.75;;;2.00;;
75667;SDS011;64266;48.798;44.756;2023-06-22T15:37:49;6.22;;;1.98;;
75667;SDS011;64266;48.798;44.756;2023-06-22T15:47:57;18.70;;;2.85;;
75667;SDS011;64266;48.798;44.756;2023-06-22T15:52:59;11.10;;;2.58;;
75667;SDS011;64266;48.798;44.756;2023-06-22T15:58:01;4.93;;;1.75;;
75667;SDS011;64266;48.798;44.756;2023-06-22T16:03:05;8.10;;;2.30;;
75667;SDS011;64266;48.798;44.756;2023-06-22T16:08:11;5.45;;;1.98;;
75667;SDS011;64266;48.798;44.756;2023-06-22T16:13:15;4.53;;;1.63;;
75667;SDS011;64266;48.798;44.756;2023-06-22T16:18:18;8.82;;;2.05;;
75667;SDS011;64266;48.798;44.756;2023-06-22T16:23:21;9.75;;;2.47;;
75667;SDS011;64266;48.798;44.756;2023-06-22T16:28:23;9.38;;;2.17;;
75667;SDS011;64266;48.798;44.756;2023-06-22T16:33:26;4.90;;;2.38;;
75667;SDS011;64266;48.798;44.756;2023-06-22T16:38:29;5.95;;;2.13;;
75667;SDS011;64266;48.798;44.756;2023-06-22T16:43:32;8.88;;;2.40;;
75667;SDS011;64266;48.798;44.756;2023-06-22T16:48:36;18.00;;;2.92;;
75667;SDS011;64266;48.798;44.756;2023-06-22T16:53:39;18.25;;;2.35;;
75667;SDS011;64266;48.798;44.756;2023-06-22T16:58:42;9.70;;;2.22;;
75667;SDS011;64266;48.798;44.756;2023-06-22T17:04:11;16.90;;;4.28;;
75667;SDS011;64266;48.798;44.756;2023-06-22T17:09:14;26.25;;;4.35;;
75667;SDS011;64266;48.798;44.756;2023-06-22T17:14:17;13.98;;;4.03;;
75667;SDS011;64266;48.798;44.756;2023-06-22T17:19:19;21.45;;;3.78;;
75667;SDS011;64266;48.798;44.756;2023-06-22T17:24:24;11.93;;;3.40;;
75667;SDS011;64266;48.798;44.756;2023-06-22T17:29:30;11.73;;;3.35;;
75667;SDS011;64266;48.798;44.756;2023-06-22T17:34:39;13.20;;;3.90;;
75667;SDS011;64266;48.798;44.756;2023-06-22T17:39:41;10.65;;;4.05;;
75667;SDS011;64266;48.798;44.756;2023-06-22T17:44:59;18.08;;;4.15;;
75667;SDS011;64266;48.798;44.756;2023-06-22T17:50:05;15.57;;;3.80;;
75667;SDS011;64266;48.798;44.756;2023-06-22T17:55:10;22.10;;;4.78;;
75667;SDS011;64266;48.798;44.756;2023-06-22T18:00:13;28.80;;;6.57;;
75667;SDS011;64266;48.798;44.756;2023-06-22T18:10:31;23.98;;;6.50;;
75667;SDS011;64266;48.798;44.756;2023-06-22T18:20:39;26.00;;;5.70;;
75667;SDS011;64266;48.798;44.756;2023-06-22T18:25:42;18.05;;;5.50;;
75667;SDS011;64266;48.798;44.756;2023-06-22T18:30:47;18.75;;;5.95;;
75667;SDS011;64266;48.798;44.756;2023-06-22T18:35:50;24.10;;;6.68;;
75667;SDS011;64266;48.798;44.756;2023-06-22T18:40:55;19.83;;;5.82;;
75667;SDS011;64266;48.798;44.756;2023-06-22T18:46:23;19.13;;;5.93;;
75667;SDS011;64266;48.798;44.756;2023-06-22T18:51:48;17.27;;;5.70;;
75667;SDS011;64266;48.798;44.756;2023-06-22T18:56:58;19.27;;;5.95;;
75667;SDS011;64266;48.798;44.756;2023-06-22T19:02:00;19.13;;;5.78;;
75667;SDS011;64266;48.798;44.756;2023-06-22T19:07:03;19.88;;;5.97;;
75667;SDS011;64266;48.798;44.756;2023-06-22T19:17:20;20.60;;;5.82;;
75667;SDS011;64266;48.798;44.756;2023-06-22T19:22:42;23.83;;;8.05;;
75667;SDS011;64266;48.798;44.756;2023-06-22T19:27:49;21.75;;;6.65;;
75667;SDS011;64266;48.798;44.756;2023-06-22T19:32:55;23.55;;;8.43;;
75667;SDS011;64266;48.798;44.756;2023-06-22T19:37:58;17.48;;;7.53;;
75667;SDS011;64266;48.798;44.756;2023-06-22T19:43:01;21.00;;;7.85;;
75667;SDS011;64266;48.798;44.756;2023-06-22T19:48:12;25.80;;;8.20;;
75667;SDS011;64266;48.798;44.756;2023-06-22T19:53:16;25.80;;;8.50;;
75667;SDS011;64266;48.798;44.756;2023-06-22T19:58:20;26.95;;;8.95;;
75667;SDS011;64266;48.798;44.756;2023-06-22T20:03:27;27.25;;;7.57;;
75667;SDS011;64266;48.798;44.756;2023-06-22T20:13:48;18.70;;;7.95;;
75667;SDS011;64266;48.798;44.756;2023-06-22T20:19:07;28.15;;;8.10;;
75667;SDS011;64266;48.798;44.756;2023-06-22T20:24:14;21.42;;;8.25;;
75667;SDS011;64266;48.798;44.756;2023-06-22T20:34:39;18.17;;;8.48;;
75667;SDS011;64266;48.798;44.756;2023-06-22T20:39:48;24.58;;;8.85;;
75667;SDS011;64266;48.798;44.756;2023-06-22T20:44:52;23.98;;;9.10;;
75667;SDS011;64266;48.798;44.756;2023-06-22T20:49:54;21.30;;;8.23;;
75667;SDS011;64266;48.798;44.756;2023-06-22T20:55:01;21.15;;;8.48;;
75667;SDS011;64266;48.798;44.756;2023-06-22T21:00:05;24.30;;;9.65;;
75667;SDS011;64266;48.798;44.756;2023-06-22T21:05:09;35.08;;;10.38;;
75667;SDS011;64266;48.798;44.756;2023-06-22T21:10:12;30.17;;;9.23;;
75667;SDS011;64266;48.798;44.756;2023-06-22T21:15:16;19.98;;;9.13;;
75667;SDS011;64266;48.798;44.756;2023-06-22T21:20:19;26.20;;;9.93;;
75667;SDS011;64266;48.798;44.756;2023-06-22T21:25:22;24.02;;;9.88;;
75667;SDS011;64266;48.798;44.756;2023-06-22T21:30:24;24.08;;;9.02;;
75667;SDS011;64266;48.798;44.756;2023-06-22T21:35:27;31.27;;;9.63;;
75667;SDS011;64266;48.798;44.756;2023-06-22T21:40:31;26.92;;;9.80;;
75667;SDS011;64266;48.798;44.756;2023-06-22T21:45:34;22.08;;;8.98;;
75667;SDS011;64266;48.798;44.756;2023-06-22T21:50:37;27.20;;;9.77;;
75667;SDS011;64266;48.798;44.756;2023-06-22T21:55:40;32.45;;;10.27;;
75667;SDS011;64266;48.798;44.756;2023-06-22T22:00:42;29.52;;;9.40;;
75667;SDS011;64266;48.798;44.756;2023-06-22T22:05:46;30.88;;;9.48;;
75667;SDS011;64266;48.798;44.756;2023-06-22T22:10:49;20.92;;;8.07;;
75667;SDS011;64266;48.798;44.756;2023-06-22T22:15:52;21.95;;;7.68;;
75667;SDS011;64266;48.798;44.756;2023-06-22T22:20:55;20.25;;;7.53;;
75667;SDS011;64266;48.798;44.756;2023-06-22T22:25:59;18.58;;;7.55;;
75667;SDS011;64266;48.798;44.756;2023-06-22T22:31:02;17.80;;;6.97;;
75667;SDS011;64266;48.798;44.756;2023-06-22T22:36:20;18.67;;;7.10;;
75667;SDS011;64266;48.798;44.756;2023-06-22T22:41:23;15.70;;;6.22;;
75667;SDS011;64266;48.798;44.756;2023-06-22T22:46:26;17.48;;;5.80;;
75667;SDS011;64266;48.798;44.756;2023-06-22T22:51:29;18.42;;;6.22;;
75667;SDS011;64266;48.798;44.756;2023-06-22T22:56:33;18.30;;;6.60;;
75667;SDS011;64266;48.798;44.756;2023-06-22T23:01:36;18.92;;;6.35;;
75667;SDS011;64266;48.798;44.756;2023-06-22T23:06:39;17.48;;;5.60;;
75667;SDS011;64266;48.798;44.756;2023-06-22T23:11:42;26.30;;;5.80;;
75667;SDS011;64266;48.798;44.756;2023-06-22T23:16:46;18.00;;;5.93;;
75667;SDS011;64266;48.798;44.756;2023-06-22T23:21:48;17.33;;;6.13;;
75667;SDS011;64266;48.798;44.756;2023-06-22T23:26:51;21.63;;;5.63;;
75667;SDS011;64266;48.798;44.756;2023-06-22T23:31:54;13.23;;;5.10;;
75667;SDS011;64266;48.798;44.756;2023-06-22T23:37:00;15.18;;;5.75;;
75667;SDS011;64266;48.798;44.756;2023-06-22T23:42:02;20.10;;;5.60;;
75667;SDS011;64266;48.798;44.756;2023-06-22T23:47:05;14.35;;;5.43;;
75667;SDS011;64266;48.798;44.756;2023-06-22T23:52:07;15.75;;;5.22;;
75667;SDS011;64266;48.798;44.756;2023-06-22T23:57:10;16.10;;;5.78;;
